createdAt,value
2023-03-20T00:02:08.421Z,61.11
2023-03-20T00:04:35.376Z,61.39
2023-03-20T00:07:03.760Z,61.18
2023-03-20T00:09:31.404Z,61.36
2023-03-20T00:11:58.444Z,61.36
2023-03-20T00:14:26.278Z,61.33
2023-03-20T00:16:53.371Z,61.02
2023-03-20T00:19:27.505Z,61.47
2023-03-20T00:21:55.614Z,61.33
2023-03-20T00:24:23.534Z,61.69
2023-03-20T00:26:52.618Z,62.08
2023-03-20T00:29:27.826Z,61.80
2023-03-20T00:31:55.831Z,62.15
2023-03-20T00:34:27.180Z,61.86
2023-03-20T00:36:54.961Z,62.19
2023-03-20T00:39:22.195Z,62.44
2023-03-20T00:41:58.466Z,62.07
2023-03-20T00:44:35.418Z,61.97
2023-03-20T00:47:18.777Z,62.03
2023-03-20T00:49:49.916Z,61.82
2023-03-20T00:52:19.714Z,61.27
2023-03-20T00:54:46.881Z,61.96
2023-03-20T00:57:30.032Z,61.81
2023-03-20T01:00:06.909Z,62.11
2023-03-20T01:02:34.120Z,62.17
2023-03-20T01:05:02.159Z,61.96
2023-03-20T01:07:29.173Z,62.13
2023-03-20T01:09:56.211Z,61.99
2023-03-20T01:12:23.821Z,62.20
2023-03-20T01:14:56.947Z,62.20
2023-03-20T01:17:26.299Z,61.99
2023-03-20T01:19:53.351Z,62.25
2023-03-20T01:22:20.565Z,62.17
2023-03-20T01:24:47.832Z,61.72
2023-03-20T01:27:20.404Z,61.67
2023-03-20T01:29:48.202Z,61.70
2023-03-20T01:32:19.186Z,61.59
2023-03-20T01:34:49.536Z,61.57
2023-03-20T01:37:27.484Z,61.61
2023-03-20T01:39:57.851Z,61.42
2023-03-20T01:42:25.905Z,61.79
2023-03-20T01:44:52.891Z,61.57
2023-03-20T01:47:24.096Z,61.69
2023-03-20T01:50:31.536Z,62.18
2023-03-20T01:53:27.644Z,62.39
2023-03-20T01:56:00.837Z,62.94
2023-03-20T01:58:41.956Z,63.34
2023-03-20T02:01:11.636Z,63.05
2023-03-20T02:03:43.251Z,62.90
2023-03-20T02:06:17.426Z,62.70
2023-03-20T02:09:13.765Z,63.01
2023-03-20T02:11:46.907Z,62.94
2023-03-20T02:14:15.855Z,63.05
2023-03-20T02:16:57.179Z,63.04
2023-03-20T02:20:05.295Z,62.34
2023-03-20T02:23:09.675Z,62.94
2023-03-20T02:26:17.385Z,63.38
2023-03-20T02:29:28.537Z,63.40
2023-03-20T02:32:11.788Z,63.29
2023-03-20T02:35:06.793Z,63.24
2023-03-20T02:37:51.644Z,62.97
2023-03-20T02:40:56.995Z,63.32
2023-03-20T02:43:44.023Z,64.02
2023-03-20T02:46:39.685Z,64.20
2023-03-20T02:49:26.818Z,64.21
2023-03-20T02:52:44.005Z,63.93
2023-03-20T02:55:18.826Z,63.97
2023-03-20T02:58:21.445Z,64.02
2023-03-20T03:01:02.001Z,64.00
2023-03-20T03:03:39.928Z,64.20
2023-03-20T03:06:32.616Z,63.84
2023-03-20T03:09:17.748Z,63.90
2023-03-20T03:11:59.097Z,64.46
2023-03-20T03:14:41.688Z,64.39
2023-03-20T03:17:15.536Z,64.24
2023-03-20T03:19:49.502Z,64.38
2023-03-20T03:22:17.387Z,63.65
2023-03-20T03:24:51.283Z,64.17
2023-03-20T03:27:43.234Z,64.06
2023-03-20T03:30:28.651Z,64.25
2023-03-20T03:33:17.104Z,63.45
2023-03-20T03:35:46.281Z,63.90
2023-03-20T03:38:56.464Z,63.58
2023-03-20T03:41:42.516Z,64.08
2023-03-20T03:44:20.391Z,64.13
2023-03-20T03:46:57.354Z,63.59
2023-03-20T03:49:36.730Z,64.13
2023-03-20T03:52:09.285Z,63.70
2023-03-20T03:55:05.432Z,63.57
2023-03-20T03:57:40.394Z,63.90
2023-03-20T04:00:14.360Z,63.71
2023-03-20T04:02:47.502Z,63.98
2023-03-20T04:05:17.144Z,63.70
2023-03-20T04:07:53.557Z,63.63
2023-03-20T04:10:20.686Z,64.41
2023-03-20T04:12:47.680Z,64.08
2023-03-20T04:15:16.782Z,64.49
2023-03-20T04:17:44.733Z,64.58
2023-03-20T04:20:14.712Z,64.41
2023-03-20T04:22:42.040Z,64.61
2023-03-20T04:25:24.037Z,64.13
2023-03-20T04:27:53.933Z,65.09
2023-03-20T04:30:48.116Z,65.80
2023-03-20T04:33:22.652Z,65.53
2023-03-20T04:36:12.555Z,65.26
2023-03-20T04:38:40.645Z,65.44
2023-03-20T04:41:08.815Z,66.23
2023-03-20T04:43:36.217Z,66.41
2023-03-20T04:46:03.942Z,67.32
2023-03-20T04:48:31.317Z,66.70
2023-03-20T04:50:58.802Z,66.80
2023-03-20T04:53:37.502Z,67.15
2023-03-20T04:56:05.438Z,66.91
2023-03-20T04:58:36.632Z,67.09
2023-03-20T05:01:04.377Z,66.97
2023-03-20T05:03:31.294Z,66.34
2023-03-20T05:05:59.343Z,66.61
2023-03-20T05:08:26.368Z,67.07
2023-03-20T05:10:57.493Z,66.56
2023-03-20T05:13:54.661Z,66.78
2023-03-20T05:16:33.028Z,66.64
2023-03-20T05:19:17.161Z,66.68
2023-03-20T05:21:57.945Z,66.38
2023-03-20T05:24:39.783Z,66.88
2023-03-20T05:27:14.384Z,66.92
2023-03-20T05:30:04.791Z,66.74
2023-03-20T05:32:52.579Z,66.46
2023-03-20T05:35:28.546Z,66.66
2023-03-20T05:38:25.878Z,66.21
2023-03-20T05:41:18.872Z,66.24
2023-03-20T05:44:02.373Z,66.25
2023-03-20T05:46:47.742Z,66.34
2023-03-20T05:49:21.580Z,66.36
2023-03-20T05:51:54.260Z,66.19
2023-03-20T05:54:31.774Z,66.05
2023-03-20T05:57:25.006Z,66.32
2023-03-20T05:59:51.944Z,66.07
2023-03-20T06:02:47.208Z,65.98
2023-03-20T06:05:35.892Z,66.32
2023-03-20T06:08:03.733Z,66.63
2023-03-20T06:10:30.839Z,66.82
2023-03-20T06:13:00.981Z,67.07
2023-03-20T06:15:29.342Z,67.13
2023-03-20T06:18:04.057Z,66.92
2023-03-20T06:20:31.627Z,67.19
2023-03-20T06:23:01.606Z,67.18
2023-03-20T06:25:28.851Z,67.11
2023-03-20T06:27:55.985Z,66.80
2023-03-20T06:30:22.990Z,66.88
2023-03-20T06:32:51.067Z,66.56
2023-03-20T06:35:21.067Z,66.53
2023-03-20T06:37:50.634Z,66.58
2023-03-20T06:40:22.838Z,66.42
2023-03-20T06:42:50.279Z,66.05
2023-03-20T06:45:18.510Z,66.13
2023-03-20T06:47:47.163Z,65.94
2023-03-20T06:50:14.885Z,65.75
2023-03-20T06:52:42.808Z,65.38
2023-03-20T06:55:31.729Z,65.34
2023-03-20T06:57:58.916Z,64.69
2023-03-20T07:00:27.114Z,64.80
2023-03-20T07:02:54.489Z,64.46
2023-03-20T07:05:21.612Z,64.33
2023-03-20T07:07:48.715Z,64.32
2023-03-20T07:10:17.226Z,64.08
2023-03-20T07:12:51.082Z,64.20
2023-03-20T07:15:20.111Z,63.66
2023-03-20T07:17:47.812Z,63.00
2023-03-20T07:20:15.152Z,62.55
2023-03-20T07:22:42.707Z,62.03
2023-03-20T07:25:16.976Z,62.36
2023-03-20T07:27:50.504Z,61.97
2023-03-20T07:30:20.872Z,61.26
2023-03-20T07:32:49.116Z,61.42
2023-03-20T07:35:16.422Z,61.17
2023-03-20T07:37:44.524Z,60.57
2023-03-20T07:40:12.351Z,60.30
2023-03-20T07:42:53.638Z,60.00
2023-03-20T07:45:57.523Z,59.23
2023-03-20T07:48:24.534Z,58.46
2023-03-20T07:50:51.670Z,58.48
2023-03-20T07:53:18.601Z,58.19
2023-03-20T07:55:48.690Z,57.69
2023-03-20T07:58:15.601Z,57.10
2023-03-20T08:00:42.565Z,57.56
2023-03-20T08:03:10.211Z,57.47
2023-03-20T08:05:38.184Z,57.04
2023-03-20T08:08:05.650Z,56.84
2023-03-20T08:10:32.802Z,56.52
2023-03-20T08:12:59.902Z,56.11
2023-03-20T08:15:26.985Z,56.31
2023-03-20T08:17:53.890Z,56.19
2023-03-20T08:20:21.689Z,55.12
2023-03-20T08:22:49.716Z,54.84
2023-03-20T08:25:17.183Z,54.33
2023-03-20T08:27:44.192Z,54.88
2023-03-20T08:30:12.991Z,54.49
2023-03-20T08:32:40.241Z,53.71
2023-03-20T08:35:16.360Z,53.63
2023-03-20T08:37:49.300Z,53.89
2023-03-20T08:40:16.885Z,53.06
2023-03-20T08:42:43.969Z,53.32
2023-03-20T08:45:11.668Z,52.61
2023-03-20T08:47:40.604Z,52.80
2023-03-20T08:50:08.500Z,52.36
2023-03-20T08:52:36.286Z,51.37
2023-03-20T08:55:03.776Z,51.59
2023-03-20T08:57:30.826Z,51.54
2023-03-20T08:59:57.740Z,51.13
2023-03-20T09:02:24.810Z,50.15
2023-03-20T09:04:51.845Z,51.08
2023-03-20T09:07:18.898Z,50.18
2023-03-20T09:09:46.001Z,50.92
2023-03-20T09:12:12.859Z,49.55
2023-03-20T09:14:39.920Z,50.26
2023-03-20T09:17:06.980Z,49.54
2023-03-20T09:19:34.845Z,49.87
2023-03-20T09:22:01.877Z,50.90
2023-03-20T09:24:29.253Z,49.07
2023-03-20T09:26:56.194Z,48.55
2023-03-20T09:29:23.282Z,48.86
2023-03-20T09:31:50.374Z,47.34
2023-03-20T09:34:17.293Z,45.70
2023-03-20T09:36:44.375Z,45.77
2023-03-20T09:39:11.705Z,46.75
2023-03-20T09:41:53.271Z,46.01
2023-03-20T09:45:01.865Z,46.68
2023-03-20T09:47:52.442Z,46.45
2023-03-20T09:50:44.734Z,45.53
2023-03-20T09:53:18.124Z,46.68
2023-03-20T09:55:45.375Z,46.24
2023-03-20T09:58:21.104Z,43.81
2023-03-20T10:00:48.272Z,44.87
2023-03-20T10:03:25.010Z,44.72
2023-03-20T10:06:03.489Z,45.59
2023-03-20T10:08:36.531Z,46.14
2023-03-20T10:11:23.530Z,44.86
2023-03-20T10:14:21.863Z,44.55
2023-03-20T10:17:29.385Z,44.43
2023-03-20T10:20:14.555Z,43.17
2023-03-20T10:22:56.594Z,43.47
2023-03-20T10:25:38.404Z,43.97
2023-03-20T10:28:13.900Z,44.21
2023-03-20T10:31:04.990Z,42.33
2023-03-20T10:33:43.961Z,43.33
2023-03-20T10:36:50.169Z,43.54
2023-03-20T10:39:43.067Z,44.20
2023-03-20T10:42:31.222Z,43.02
2023-03-20T10:45:06.828Z,43.92
2023-03-20T10:47:39.203Z,41.70
2023-03-20T10:50:14.765Z,41.03
2023-03-20T10:52:42.383Z,40.54
2023-03-20T10:55:30.807Z,41.28
2023-03-20T10:58:12.139Z,41.08
2023-03-20T11:00:39.163Z,41.43
2023-03-20T11:03:08.138Z,42.15
2023-03-20T11:05:36.980Z,41.34
2023-03-20T11:08:07.449Z,40.09
2023-03-20T11:10:37.261Z,40.91
2023-03-20T11:13:41.919Z,39.95
2023-03-20T11:16:41.203Z,40.62
2023-03-20T11:19:11.984Z,40.44
2023-03-20T11:21:58.253Z,39.52
2023-03-20T11:24:41.364Z,39.99
2023-03-20T11:27:19.198Z,39.64
2023-03-20T11:29:50.940Z,39.96
2023-03-20T11:32:45.594Z,39.12
2023-03-20T11:35:26.461Z,38.47
2023-03-20T11:38:15.408Z,38.98
2023-03-20T11:40:42.411Z,39.32
2023-03-20T11:43:21.800Z,38.69
2023-03-20T11:46:00.768Z,37.20
2023-03-20T11:48:45.428Z,38.18
2023-03-20T11:51:22.818Z,37.96
2023-03-20T11:53:49.614Z,37.43
2023-03-20T11:56:30.850Z,37.79
2023-03-20T11:59:09.373Z,37.44
2023-03-20T12:01:52.893Z,38.21
2023-03-20T12:04:37.620Z,37.26
2023-03-20T12:07:18.161Z,38.01
2023-03-20T12:10:03.066Z,36.66
2023-03-20T12:12:55.135Z,36.31
2023-03-20T12:15:34.248Z,37.41
2023-03-20T12:18:16.838Z,38.28
2023-03-20T12:20:48.434Z,37.57
2023-03-20T12:23:43.464Z,36.43
2023-03-20T12:26:16.116Z,36.71
2023-03-20T12:29:11.333Z,35.53
2023-03-20T12:31:52.549Z,36.03
2023-03-20T12:34:29.189Z,36.31
2023-03-20T12:36:59.227Z,36.10
2023-03-20T12:39:34.278Z,36.67
2023-03-20T12:42:28.938Z,37.53
2023-03-20T12:45:24.176Z,39.39
2023-03-20T12:48:12.998Z,39.35
2023-03-20T12:51:05.784Z,34.49
2023-03-20T12:53:44.856Z,34.57
2023-03-20T12:56:27.859Z,32.45
2023-03-20T12:59:11.894Z,30.76
2023-03-20T13:01:55.584Z,31.01
2023-03-20T13:05:18.159Z,30.88
2023-03-20T13:08:03.345Z,31.67
2023-03-20T13:10:41.609Z,31.97
2023-03-20T13:13:57.338Z,33.10
2023-03-20T13:17:00.380Z,33.20
2023-03-20T13:19:42.230Z,33.31
2023-03-20T13:22:55.746Z,32.94
2023-03-20T13:26:36.741Z,33.65
2023-03-20T13:29:27.897Z,34.14
2023-03-20T13:32:27.052Z,34.13
2023-03-20T13:35:02.712Z,34.73
2023-03-20T13:37:39.114Z,35.25
2023-03-20T13:40:31.977Z,35.31
2023-03-20T13:43:24.208Z,35.42
2023-03-20T13:46:16.503Z,36.58
2023-03-20T13:48:45.509Z,36.45
2023-03-20T13:51:39.247Z,36.93
2023-03-20T13:54:27.860Z,37.17
2023-03-20T13:57:08.172Z,37.13
2023-03-20T13:59:43.697Z,37.73
2023-03-20T14:02:42.033Z,37.85
2023-03-20T14:05:19.172Z,38.29
2023-03-20T14:07:49.395Z,38.70
2023-03-20T14:10:22.403Z,38.87
2023-03-20T14:12:51.017Z,39.20
2023-03-20T14:15:20.356Z,39.53
2023-03-20T14:17:50.166Z,38.45
2023-03-20T14:20:35.936Z,38.86
2023-03-20T14:23:04.729Z,38.34
2023-03-20T14:25:41.796Z,39.04
2023-03-20T14:28:11.701Z,39.08
2023-03-20T14:30:41.407Z,39.13
2023-03-20T14:33:16.332Z,39.38
2023-03-20T14:36:19.401Z,39.48
2023-03-20T14:39:22.618Z,39.23
2023-03-20T14:41:55.456Z,39.50
2023-03-20T14:44:38.774Z,39.98
2023-03-20T14:47:56.087Z,40.06
2023-03-20T14:50:41.402Z,40.96
2023-03-20T14:53:14.917Z,41.86
2023-03-20T14:56:13.407Z,42.18
2023-03-20T14:58:40.828Z,43.75
2023-03-20T15:01:19.077Z,44.00
2023-03-20T15:04:20.876Z,44.84
2023-03-20T15:07:00.220Z,45.68
2023-03-20T15:09:30.233Z,46.95
2023-03-20T15:12:04.417Z,47.69
2023-03-20T15:14:45.469Z,48.28
2023-03-20T15:17:27.147Z,49.69
2023-03-20T15:20:15.402Z,50.29
2023-03-20T15:22:58.014Z,51.59
2023-03-20T15:25:43.815Z,52.42
2023-03-20T15:28:24.592Z,52.27
2023-03-20T15:30:56.738Z,53.01
2023-03-20T15:33:27.777Z,54.80
2023-03-20T15:35:55.739Z,54.95
2023-03-20T15:38:28.413Z,55.49
2023-03-20T15:40:55.582Z,55.59
2023-03-20T15:43:25.607Z,55.18
2023-03-20T15:46:14.177Z,55.34
2023-03-20T15:48:48.736Z,55.96
2023-03-20T15:51:17.205Z,55.55
2023-03-20T15:53:47.981Z,55.85
2023-03-20T15:56:19.717Z,55.97
2023-03-20T15:58:52.213Z,55.99
2023-03-20T16:01:22.371Z,55.72
2023-03-20T16:03:50.430Z,54.72
2023-03-20T16:06:21.840Z,54.72
2023-03-20T16:09:06.595Z,54.96
2023-03-20T16:11:42.874Z,54.92
2023-03-20T16:14:26.574Z,54.30
2023-03-20T16:16:56.636Z,54.51
2023-03-20T16:19:27.293Z,54.60
2023-03-20T16:21:59.468Z,53.80
2023-03-20T16:24:35.464Z,54.21
2023-03-20T16:27:10.446Z,54.23
2023-03-20T16:29:42.982Z,53.73
2023-03-20T16:32:36.291Z,53.40
2023-03-20T16:35:18.319Z,53.41
2023-03-20T16:37:56.709Z,53.50
2023-03-20T16:40:37.707Z,53.40
2023-03-20T16:43:17.256Z,53.46
2023-03-20T16:45:58.320Z,53.11
2023-03-20T16:48:33.553Z,52.80
2023-03-20T16:51:30.779Z,53.12
2023-03-20T16:54:01.407Z,52.85
2023-03-20T16:56:40.425Z,53.41
2023-03-20T16:59:17.644Z,53.00
2023-03-20T17:01:51.970Z,53.20
2023-03-20T17:04:37.825Z,52.90
2023-03-20T17:07:19.203Z,52.88
2023-03-20T17:10:15.787Z,53.52
2023-03-20T17:12:46.709Z,53.38
2023-03-20T17:15:20.520Z,53.36
2023-03-20T17:17:47.824Z,53.39
2023-03-20T17:20:28.153Z,53.35
2023-03-20T17:22:55.188Z,53.51
2023-03-20T17:25:22.230Z,54.66
2023-03-20T17:27:49.176Z,54.83
2023-03-20T17:30:20.941Z,54.59
2023-03-20T17:32:48.141Z,55.18
2023-03-20T17:35:15.414Z,55.29
2023-03-20T17:37:42.908Z,55.57
2023-03-20T17:40:22.676Z,55.32
2023-03-20T17:42:49.632Z,56.04
2023-03-20T17:45:20.471Z,55.73
2023-03-20T17:47:48.081Z,56.09
2023-03-20T17:50:27.281Z,56.17
2023-03-20T17:52:54.989Z,55.84
2023-03-20T17:55:22.584Z,55.93
2023-03-20T17:57:49.546Z,56.57
2023-03-20T18:00:23.990Z,56.33
2023-03-20T18:02:51.165Z,56.63
2023-03-20T18:05:18.255Z,56.54
2023-03-20T18:07:45.265Z,57.08
2023-03-20T18:10:31.781Z,56.36
2023-03-20T18:13:00.226Z,56.45
2023-03-20T18:15:27.687Z,56.49
2023-03-20T18:17:55.110Z,57.51
2023-03-20T18:20:31.949Z,56.95
2023-03-20T18:22:59.349Z,56.48
2023-03-20T18:25:26.368Z,56.04
2023-03-20T18:27:55.489Z,56.45
2023-03-20T18:30:28.837Z,57.15
2023-03-20T18:32:56.084Z,57.77
2023-03-20T18:35:22.996Z,58.79
2023-03-20T18:37:49.996Z,58.11
2023-03-20T18:40:23.048Z,59.81
2023-03-20T18:42:49.968Z,59.53
2023-03-20T18:45:17.157Z,59.33
2023-03-20T18:47:44.524Z,59.32
2023-03-20T18:50:27.220Z,59.30
2023-03-20T18:52:56.634Z,59.71
2023-03-20T18:55:27.008Z,60.71
2023-03-20T18:57:54.520Z,59.65
2023-03-20T19:00:35.862Z,59.65
2023-03-20T19:03:03.743Z,58.88
2023-03-20T19:05:31.339Z,60.69
2023-03-20T19:07:59.854Z,60.33
2023-03-20T19:10:36.398Z,60.93
2023-03-20T19:13:06.104Z,60.67
2023-03-20T19:15:36.692Z,60.64
2023-03-20T19:18:12.058Z,60.13
2023-03-20T19:20:43.406Z,61.47
2023-03-20T19:23:14.127Z,61.72
2023-03-20T19:25:44.642Z,62.65
2023-03-20T19:28:21.748Z,61.54
2023-03-20T19:30:51.040Z,61.03
2023-03-20T19:33:18.372Z,60.63
2023-03-20T19:36:02.431Z,60.61
2023-03-20T19:38:30.915Z,61.87
2023-03-20T19:40:59.226Z,62.23
2023-03-20T19:43:28.810Z,61.81
2023-03-20T19:45:58.989Z,61.65
2023-03-20T19:48:51.491Z,61.69
2023-03-20T19:51:29.476Z,62.25
2023-03-20T19:53:56.593Z,63.52
2023-03-20T19:56:24.145Z,63.55
2023-03-20T19:58:52.198Z,63.18
2023-03-20T20:01:23.082Z,62.64
2023-03-20T20:03:53.293Z,63.05
2023-03-20T20:06:22.313Z,62.61
2023-03-20T20:08:50.669Z,62.72
2023-03-20T20:11:19.741Z,63.01
2023-03-20T20:14:07.255Z,62.31
2023-03-20T20:16:39.540Z,62.02
2023-03-20T20:19:07.282Z,62.96
2023-03-20T20:24:21.774Z,63.20
2023-03-20T20:27:07.070Z,63.60
2023-03-20T20:29:42.248Z,62.87
2023-03-20T20:32:09.182Z,62.50
2023-03-20T20:38:19.775Z,62.51
2023-03-20T20:40:17.096Z,63.16
2023-03-20T20:42:47.543Z,62.82
2023-03-20T20:45:15.275Z,63.19
2023-03-20T20:47:44.912Z,63.29
2023-03-20T20:50:14.617Z,63.68
2023-03-20T20:52:42.751Z,63.76
2023-03-20T20:55:22.603Z,63.66
2023-03-20T20:57:53.026Z,63.23
2023-03-20T21:00:27.495Z,63.13
2023-03-20T21:02:58.603Z,62.56
2023-03-20T21:05:26.898Z,62.57
2023-03-20T21:07:54.421Z,63.10
2023-03-20T21:10:22.221Z,62.71
2023-03-20T21:12:58.921Z,63.03
2023-03-20T21:15:26.818Z,63.20
2023-03-20T21:18:01.035Z,62.90
2023-03-20T21:20:32.695Z,63.51
2023-03-20T21:23:00.197Z,62.85
2023-03-20T21:25:47.081Z,63.35
2023-03-20T21:28:14.676Z,63.27
2023-03-20T21:30:54.636Z,63.49
2023-03-20T21:33:29.240Z,63.23
2023-03-20T21:35:56.123Z,63.44
2023-03-20T21:38:58.662Z,63.34
2023-03-20T21:41:11.171Z,63.60
2023-03-20T21:43:39.473Z,63.28
2023-03-20T21:55:04.052Z,63.08
2023-03-20T22:02:57.006Z,63.82
2023-03-20T22:06:14.445Z,64.08
2023-03-20T22:11:45.048Z,64.21
2023-03-20T22:17:32.884Z,63.32
2023-03-20T22:36:48.038Z,62.96
2023-03-20T22:42:19.938Z,63.33
2023-03-20T22:44:59.102Z,63.06
2023-03-20T22:47:13.302Z,63.05
2023-03-20T22:49:40.176Z,63.17
2023-03-20T22:52:23.023Z,63.03
2023-03-20T22:54:54.372Z,62.97
2023-03-20T22:57:21.400Z,62.95
2023-03-20T22:59:52.381Z,63.15
2023-03-20T23:02:19.631Z,63.42
2023-03-20T23:04:46.597Z,62.99
2023-03-20T23:07:13.622Z,62.83
2023-03-20T23:09:40.616Z,62.50
2023-03-20T23:12:07.847Z,62.70
2023-03-20T23:14:45.518Z,62.96
2023-03-20T23:17:12.996Z,63.31
2023-03-20T23:19:47.878Z,63.05
2023-03-20T23:22:19.164Z,63.25
2023-03-20T23:24:46.218Z,62.82
2023-03-20T23:27:13.396Z,62.92
2023-03-20T23:29:40.734Z,63.14
2023-03-20T23:32:07.868Z,63.40
2023-03-20T23:34:36.779Z,63.18
2023-03-20T23:37:04.198Z,63.32
2023-03-20T23:39:31.270Z,63.15
2023-03-20T23:42:11.990Z,62.88
2023-03-20T23:44:55.338Z,62.94
2023-03-20T23:47:27.694Z,63.17
2023-03-20T23:49:57.037Z,62.95
2023-03-20T23:52:23.933Z,62.98
2023-03-20T23:54:50.949Z,62.73
2023-03-20T23:57:18.024Z,62.56
2023-03-20T23:59:44.943Z,62.39
